FQIN

Inhambane Airport

Inhambabe, Mozambique
METAR FQIN 131900Z 18006KT 9999 FEW020 26/23 Q1018
Observed Flight Rules
Dec-13 @ 19:00 UTC (7 hours ago) Visual Flight Rules
Wind Visibility Clouds
180° at 6 knots 10,000+ meters
  • Few at 2,000' AGL
Temperatures Readings
Current 26°C / 79°F
Dewpoint 23°C / 73°F
Humidity 84%
Altimeter 30.06" Hg
Pressure 1018 hPa
Elevation 15
METAR FQIN 131900Z 18006KT 9999 FEW020 26/23 Q1018
Observed Flight Rules
Dec-13 @ 19:00 UTC
(7 hours ago)
VFR
Wind Visibility
180° at 6 knots 10,000+ meters
Clouds
  • Few at 2,000' AGL
Temperature Dewpoint
26°C / 79°F 23°C / 73°F
Humidity Altimeter Pressure
84% 30.06" Hg 1018 hPa